Terminal Aerodrome Forecast
Issued by NWS Dallas/Fort Worth, TX

Home | Current Version | Previous Version | Text Only | Print | Product List | Glossary On
Versions: 1 2 3 4 5 6 7 8 9 10 11 12 13 14 15 16 17 18 19 20 21 22 23 24 25 26
000
FTUS44 KFWD 290500 AAA
TAFDFW
TAF AMD
KDFW 290533Z 2906/3012 15010KT P6SM SCT060 BKN250
     FM290645 33015KT P6SM -SHRA VCTS OVC050CB
     FM291000 15010KT P6SM VCSH SCT050 BKN100
     FM291200 18007KT P6SM BKN100
     FM292200 17010KT P6SM VCTS BKN060CB
     FM300300 16010KT P6SM BKN060=

USA.gov is the U.S. government's official web portal to all federal, state and local government web resources and services.